createdAt,value
2023-01-03T00:02:14.162Z,189.00
2023-01-03T00:04:49.125Z,181.18
2023-01-03T00:07:35.167Z,193.18
2023-01-03T00:10:10.680Z,194.20
2023-01-03T00:12:40.767Z,189.82
2023-01-03T00:15:11.581Z,191.90
2023-01-03T00:20:12.134Z,189.55
2023-01-03T00:22:42.043Z,189.45
2023-01-03T00:25:11.989Z,194.80
2023-01-03T00:27:41.875Z,187.73
2023-01-03T00:30:12.373Z,184.73
2023-01-03T00:32:42.438Z,182.68
2023-01-03T00:35:12.976Z,195.48
2023-01-03T00:37:42.847Z,193.85
2023-01-03T00:40:13.330Z,198.43
2023-01-03T00:42:54.178Z,181.95
2023-01-03T00:45:25.694Z,182.15
2023-01-03T00:47:56.368Z,182.52
2023-01-03T00:50:26.217Z,189.27
2023-01-03T00:52:56.028Z,186.45
2023-01-03T00:55:25.854Z,200.88
2023-01-03T00:57:55.843Z,203.27
2023-01-03T01:00:25.694Z,200.70
2023-01-03T01:02:58.086Z,206.90
2023-01-03T01:05:27.996Z,196.43
2023-01-03T01:07:58.108Z,190.55
2023-01-03T01:10:28.221Z,194.35
2023-01-03T01:12:58.795Z,214.15
2023-01-03T01:15:28.718Z,206.68
2023-01-03T01:17:59.831Z,205.88
2023-01-03T01:20:29.723Z,209.63
2023-01-03T01:22:59.623Z,201.43
2023-01-03T01:25:29.545Z,200.17
2023-01-03T01:27:59.381Z,197.87
2023-01-03T01:30:29.282Z,198.13
2023-01-03T01:32:59.208Z,212.77
2023-01-03T01:35:29.078Z,190.90
2023-01-03T01:37:59.953Z,218.87
2023-01-03T01:43:17.888Z,240.90
2023-01-03T01:45:48.967Z,250.93
2023-01-03T01:48:19.851Z,252.55
2023-01-03T01:53:27.867Z,248.15
2023-01-03T01:56:19.331Z,233.43
2023-01-03T01:58:52.711Z,230.73
2023-01-03T02:01:25.323Z,248.52
2023-01-03T02:04:23.061Z,244.55
2023-01-03T02:06:54.782Z,256.80
2023-01-03T02:09:25.189Z,265.90
2023-01-03T02:12:22.145Z,273.08
2023-01-03T02:15:30.312Z,283.15
2023-01-03T02:18:26.708Z,268.17
2023-01-03T02:21:35.777Z,250.35
2023-01-03T02:24:41.905Z,250.02
2023-01-03T02:27:50.829Z,248.05
2023-01-03T02:30:38.042Z,237.25
2023-01-03T02:33:41.585Z,207.75
2023-01-03T02:36:41.989Z,199.98
2023-01-03T02:39:29.400Z,195.45
2023-01-03T02:42:41.295Z,208.20
2023-01-03T02:45:18.067Z,212.30
2023-01-03T02:47:57.364Z,208.98
2023-01-03T02:50:30.622Z,210.95
2023-01-03T02:53:08.223Z,213.63
2023-01-03T02:55:40.261Z,203.18
2023-01-03T02:58:18.986Z,225.52
2023-01-03T03:00:53.778Z,201.57
2023-01-03T03:03:29.031Z,205.15
2023-01-03T03:06:24.414Z,198.60
2023-01-03T03:08:54.706Z,207.48
2023-01-03T03:11:43.495Z,204.40
2023-01-03T03:14:25.839Z,206.73
2023-01-03T03:17:01.352Z,205.27
2023-01-03T03:19:53.857Z,204.55
2023-01-03T03:23:03.925Z,194.38
2023-01-03T03:25:45.826Z,221.25
2023-01-03T03:28:36.320Z,239.57
2023-01-03T03:31:14.771Z,240.52
2023-01-03T03:34:01.359Z,248.45
2023-01-03T03:37:06.479Z,248.15
2023-01-03T03:39:54.959Z,266.88
2023-01-03T03:42:55.182Z,263.77
2023-01-03T03:45:43.922Z,277.48
2023-01-03T03:48:28.119Z,286.65
2023-01-03T03:51:11.503Z,256.45
2023-01-03T03:53:44.365Z,251.13
2023-01-03T03:56:21.423Z,260.70
2023-01-03T03:58:56.473Z,277.63
2023-01-03T04:01:29.529Z,284.52
2023-01-03T04:04:06.040Z,258.08
2023-01-03T04:06:43.923Z,248.98
2023-01-03T04:09:15.760Z,251.07
2023-01-03T04:11:48.005Z,239.15
2023-01-03T04:14:18.067Z,241.02
2023-01-03T04:16:48.226Z,244.05
2023-01-03T04:19:18.900Z,264.02
2023-01-03T04:21:49.659Z,257.73
2023-01-03T04:26:52.900Z,244.23
2023-01-03T04:29:22.857Z,228.40
2023-01-03T04:31:53.052Z,257.27
2023-01-03T04:34:24.663Z,235.90
2023-01-03T04:36:56.165Z,232.00
2023-01-03T04:39:26.166Z,239.70
2023-01-03T04:41:58.296Z,236.68
2023-01-03T04:44:28.311Z,214.27
2023-01-03T04:46:58.323Z,228.02
2023-01-03T04:49:28.095Z,240.65
2023-01-03T04:51:58.589Z,240.55
2023-01-03T04:54:28.892Z,222.65
2023-01-03T04:56:58.857Z,250.00
2023-01-03T04:59:28.817Z,229.75
2023-01-03T05:02:00.444Z,238.50
2023-01-03T05:04:31.820Z,254.65
2023-01-03T05:07:02.301Z,252.75
2023-01-03T05:09:32.943Z,242.95
2023-01-03T05:14:33.685Z,236.02
2023-01-03T05:17:07.888Z,234.93
2023-01-03T05:19:57.681Z,225.10
2023-01-03T05:22:41.713Z,209.43
2023-01-03T05:25:32.201Z,200.90
2023-01-03T05:28:04.137Z,197.70
2023-01-03T05:30:34.551Z,222.25
2023-01-03T05:33:07.552Z,205.00
2023-01-03T05:35:47.394Z,196.05
2023-01-03T05:38:18.479Z,198.82
2023-01-03T05:40:48.854Z,204.52
2023-01-03T05:43:19.449Z,167.73
2023-01-03T05:48:24.677Z,180.75
2023-01-03T05:50:55.145Z,164.50
2023-01-03T05:53:26.059Z,171.90
2023-01-03T05:55:58.159Z,167.32
2023-01-03T05:58:29.167Z,157.35
2023-01-03T06:01:01.129Z,154.38
2023-01-03T06:03:31.675Z,173.05
2023-01-03T06:08:39.472Z,155.43
2023-01-03T06:11:10.750Z,143.75
2023-01-03T06:13:42.114Z,152.40
2023-01-03T06:16:35.508Z,146.07
2023-01-03T06:19:07.170Z,146.05
2023-01-03T06:21:38.950Z,142.75
2023-01-03T06:24:12.299Z,154.85
2023-01-03T06:26:42.619Z,128.75
2023-01-03T06:29:12.626Z,133.88
2023-01-03T06:31:43.433Z,128.80
2023-01-03T06:34:13.919Z,127.13
2023-01-03T06:39:13.320Z,120.40
2023-01-03T06:41:43.341Z,127.13
2023-01-03T06:44:15.227Z,147.05
2023-01-03T06:46:57.230Z,161.90
2023-01-03T06:49:49.777Z,155.18
2023-01-03T06:52:38.008Z,135.13
2023-01-03T06:55:12.680Z,141.55
2023-01-03T06:57:43.408Z,129.60
2023-01-03T07:00:14.118Z,128.30
2023-01-03T07:02:47.778Z,127.53
2023-01-03T07:05:18.505Z,114.03
2023-01-03T07:10:18.923Z,104.00
2023-01-03T07:12:59.371Z,102.15
2023-01-03T07:15:29.467Z,93.18
2023-01-03T07:18:00.184Z,107.90
2023-01-03T07:20:30.673Z,104.75
2023-01-03T07:25:33.463Z,95.97
2023-01-03T07:28:09.184Z,118.32
2023-01-03T07:30:50.504Z,108.78
2023-01-03T07:33:22.830Z,101.40
2023-01-03T07:35:55.852Z,106.28
2023-01-03T07:38:27.346Z,95.40
2023-01-03T07:41:03.034Z,107.15
2023-01-03T07:43:40.686Z,114.18
2023-01-03T07:46:25.397Z,100.60
2023-01-03T07:49:07.979Z,103.95
2023-01-03T07:51:41.940Z,97.82
2023-01-03T07:54:16.838Z,92.03
2023-01-03T07:56:46.821Z,80.72
2023-01-03T07:59:17.727Z,78.10
2023-01-03T08:01:48.001Z,81.68
2023-01-03T08:06:50.608Z,83.80
2023-01-03T08:09:32.531Z,90.90
2023-01-03T08:12:13.022Z,90.45
2023-01-03T08:14:43.900Z,96.43
2023-01-03T08:17:15.327Z,84.25
2023-01-03T08:19:46.267Z,81.50
2023-01-03T08:22:16.494Z,80.20
2023-01-03T08:24:46.964Z,91.53
2023-01-03T08:29:49.980Z,81.72
2023-01-03T08:32:31.131Z,86.45
2023-01-03T08:35:06.273Z,85.38
2023-01-03T08:37:37.301Z,92.75
2023-01-03T08:40:13.018Z,80.97
2023-01-03T08:42:46.551Z,64.85
2023-01-03T08:45:25.811Z,68.47
2023-01-03T08:47:59.860Z,62.92
2023-01-03T08:50:33.189Z,68.15
2023-01-03T08:53:04.250Z,65.65
2023-01-03T08:55:42.064Z,70.50
2023-01-03T08:58:14.172Z,63.05
2023-01-03T09:00:46.765Z,65.47
2023-01-03T09:03:17.489Z,64.47
2023-01-03T09:05:50.113Z,62.55
2023-01-03T09:08:21.602Z,64.18
2023-01-03T09:10:59.569Z,67.40
2023-01-03T09:13:33.625Z,119.10
2023-01-03T09:16:08.326Z,119.40
2023-01-03T09:18:40.240Z,123.88
2023-01-03T09:21:11.201Z,128.45
2023-01-03T09:23:45.748Z,152.68
2023-01-03T09:26:18.104Z,130.25
2023-01-03T09:28:49.914Z,124.07
2023-01-03T09:31:21.488Z,154.30
2023-01-03T09:33:53.688Z,163.23
2023-01-03T09:36:24.261Z,161.85
2023-01-03T09:38:59.551Z,139.82
2023-01-03T09:41:31.070Z,121.72
2023-01-03T09:44:06.797Z,117.90
2023-01-03T09:46:38.271Z,111.15
2023-01-03T09:49:09.584Z,141.40
2023-01-03T09:51:59.591Z,122.65
2023-01-03T09:54:49.724Z,121.88
2023-01-03T09:57:40.868Z,114.68
2023-01-03T10:00:39.881Z,144.70
2023-01-03T10:03:51.458Z,111.85
2023-01-03T10:06:53.640Z,123.97
2023-01-03T10:09:54.383Z,118.90
2023-01-03T10:15:43.172Z,109.53
2023-01-03T10:18:53.034Z,104.50
2023-01-03T10:21:49.077Z,129.68
2023-01-03T10:24:33.031Z,116.97
2023-01-03T10:27:24.177Z,125.43
2023-01-03T10:30:04.990Z,114.65
2023-01-03T10:33:06.325Z,126.13
2023-01-03T10:35:42.505Z,123.63
2023-01-03T10:38:13.759Z,110.88
2023-01-03T10:40:52.360Z,115.65
2023-01-03T10:43:34.738Z,118.47
2023-01-03T10:46:07.921Z,129.25
2023-01-03T10:51:56.569Z,139.95
2023-01-03T10:54:57.945Z,154.23
2023-01-03T10:57:47.901Z,122.88
2023-01-03T11:00:39.130Z,118.00
2023-01-03T11:03:20.525Z,136.27
2023-01-03T11:06:10.218Z,113.82
2023-01-03T11:08:48.455Z,115.93
2023-01-03T11:11:39.202Z,113.40
2023-01-03T11:14:28.878Z,113.32
2023-01-03T11:17:11.833Z,113.70
2023-01-03T11:19:43.006Z,116.22
2023-01-03T11:22:45.791Z,113.35
2023-01-03T11:25:41.580Z,112.70
2023-01-03T11:28:41.013Z,121.68
2023-01-03T11:31:48.696Z,132.25
2023-01-03T11:35:20.271Z,130.23
2023-01-03T11:37:47.836Z,132.35
2023-01-03T11:40:49.376Z,124.78
2023-01-03T11:43:42.051Z,127.90
2023-01-03T11:46:38.024Z,128.63
2023-01-03T11:49:27.289Z,155.18
2023-01-03T11:52:27.525Z,158.40
2023-01-03T11:55:24.575Z,175.98
2023-01-03T11:58:21.067Z,164.07
2023-01-03T12:01:07.931Z,154.68
2023-01-03T12:04:13.384Z,159.75
2023-01-03T12:10:30.958Z,184.93
2023-01-03T12:13:29.048Z,174.55
2023-01-03T12:16:25.397Z,165.63
2023-01-03T12:19:22.039Z,158.73
2023-01-03T12:22:01.645Z,179.90
2023-01-03T12:24:45.359Z,208.57
2023-01-03T12:27:31.367Z,198.27
2023-01-03T12:30:27.833Z,200.63
2023-01-03T12:33:09.487Z,178.98
2023-01-03T12:35:52.161Z,216.60
2023-01-03T12:38:31.740Z,206.98
2023-01-03T12:41:30.465Z,170.25
2023-01-03T12:44:15.959Z,156.55
2023-01-03T12:46:52.265Z,169.80
2023-01-03T12:49:41.265Z,157.82
2023-01-03T12:52:17.948Z,209.32
2023-01-03T12:54:58.298Z,200.00
2023-01-03T12:58:00.874Z,204.57
2023-01-03T13:01:01.421Z,199.68
2023-01-03T13:03:43.996Z,175.48
2023-01-03T13:06:25.947Z,182.05
2023-01-03T13:09:06.774Z,183.32
2023-01-03T13:11:44.614Z,174.32
2023-01-03T13:14:23.362Z,170.25
2023-01-03T13:16:58.141Z,167.88
2023-01-03T13:19:47.111Z,177.05
2023-01-03T13:22:54.346Z,164.05
2023-01-03T13:25:37.763Z,178.10
2023-01-03T13:28:28.766Z,161.68
2023-01-03T13:31:34.057Z,179.10
2023-01-03T13:34:19.345Z,173.15
2023-01-03T13:37:14.083Z,177.30
2023-01-03T13:39:57.844Z,192.63
2023-01-03T13:42:43.993Z,201.82
2023-01-03T13:45:51.384Z,194.57
2023-01-03T13:48:36.670Z,202.82
2023-01-03T13:51:29.808Z,184.43
2023-01-03T13:54:07.221Z,166.55
2023-01-03T13:57:01.564Z,179.10
2023-01-03T13:59:44.694Z,186.50
2023-01-03T14:02:46.812Z,217.75
2023-01-03T14:05:35.775Z,242.70
2023-01-03T14:08:37.788Z,227.70
2023-01-03T14:11:36.674Z,217.13
2023-01-03T14:14:15.326Z,223.23
2023-01-03T14:16:55.704Z,229.48
2023-01-03T14:19:51.513Z,248.20
2023-01-03T14:22:31.983Z,240.23
2023-01-03T14:25:03.463Z,236.90
2023-01-03T14:27:43.105Z,233.30
2023-01-03T14:30:34.199Z,195.57
2023-01-03T14:33:11.643Z,163.18
2023-01-03T14:35:46.985Z,167.57
2023-01-03T14:38:40.743Z,167.63
2023-01-03T14:41:30.633Z,163.25
2023-01-03T14:44:17.220Z,163.00
2023-01-03T14:47:04.279Z,175.15
2023-01-03T14:49:55.380Z,198.10
2023-01-03T14:52:51.399Z,175.05
2023-01-03T14:55:35.127Z,173.10
2023-01-03T14:58:19.985Z,171.18
2023-01-03T15:00:52.641Z,161.00
2023-01-03T15:03:23.012Z,165.75
2023-01-03T15:06:01.772Z,156.07
2023-01-03T15:08:35.328Z,144.85
2023-01-03T15:11:13.875Z,144.57
2023-01-03T15:13:58.061Z,148.68
2023-01-03T15:16:40.883Z,152.18
2023-01-03T15:19:32.821Z,145.63
2023-01-03T15:22:17.313Z,136.73
2023-01-03T15:24:51.621Z,150.57
2023-01-03T15:27:47.496Z,148.05
2023-01-03T15:30:27.259Z,154.10
2023-01-03T15:33:18.478Z,163.17
2023-01-03T15:35:53.218Z,141.10
2023-01-03T15:38:46.253Z,158.00
2023-01-03T15:42:12.384Z,172.82
2023-01-03T15:44:41.895Z,164.05
2023-01-03T15:47:16.084Z,159.75
2023-01-03T15:49:51.436Z,162.57
2023-01-03T15:52:22.902Z,160.98
2023-01-03T15:54:57.166Z,168.68
2023-01-03T15:57:32.689Z,163.05
2023-01-03T16:00:07.087Z,166.05
2023-01-03T16:02:41.289Z,165.30
2023-01-03T16:05:21.933Z,160.93
2023-01-03T16:07:58.549Z,159.95
2023-01-03T16:10:32.858Z,156.68
2023-01-03T16:13:09.884Z,164.00
2023-01-03T16:15:45.804Z,169.50
2023-01-03T16:18:22.575Z,183.95
2023-01-03T16:21:35.812Z,148.25
2023-01-03T16:24:30.306Z,150.57
2023-01-03T16:27:03.283Z,141.27
2023-01-03T16:29:34.378Z,129.38
2023-01-03T16:32:05.018Z,143.40
2023-01-03T16:34:35.629Z,138.48
2023-01-03T16:37:06.090Z,141.18
2023-01-03T16:39:37.412Z,132.98
2023-01-03T16:42:17.031Z,146.60
2023-01-03T16:44:49.911Z,143.18
2023-01-03T16:47:27.012Z,149.98
2023-01-03T16:50:19.716Z,149.55
2023-01-03T16:52:56.715Z,141.20
2023-01-03T16:55:45.934Z,124.60
2023-01-03T16:58:17.500Z,116.13
2023-01-03T17:00:47.548Z,125.63
2023-01-03T17:03:17.780Z,121.57
2023-01-03T17:05:49.668Z,112.78
2023-01-03T17:08:42.367Z,111.63
2023-01-03T17:11:14.812Z,121.82
2023-01-03T17:13:47.369Z,126.65
2023-01-03T17:16:21.846Z,130.95
2023-01-03T17:18:55.650Z,118.88
2023-01-03T17:21:30.876Z,122.93
2023-01-03T17:24:04.920Z,130.55
2023-01-03T17:26:37.047Z,132.95
2023-01-03T17:29:09.887Z,127.03
2023-01-03T17:31:40.837Z,138.50
2023-01-03T17:34:29.077Z,140.93
2023-01-03T17:37:04.345Z,122.57
2023-01-03T17:39:35.111Z,126.03
2023-01-03T17:42:15.342Z,137.00
2023-01-03T17:45:07.893Z,140.43
2023-01-03T17:47:59.311Z,138.82
2023-01-03T17:50:31.886Z,135.07
2023-01-03T17:53:05.038Z,137.70
2023-01-03T17:55:35.383Z,128.32
2023-01-03T17:58:06.813Z,130.50
2023-01-03T18:00:37.014Z,132.10
2023-01-03T18:03:07.888Z,136.00
2023-01-03T18:05:42.837Z,134.90
2023-01-03T18:08:22.064Z,134.90
2023-01-03T18:10:55.036Z,134.77
2023-01-03T18:13:29.807Z,139.43
2023-01-03T18:15:59.984Z,137.45
2023-01-03T18:18:31.568Z,156.63
2023-01-03T18:21:01.651Z,139.52
2023-01-03T18:23:38.786Z,152.88
2023-01-03T18:26:14.348Z,130.05
2023-01-03T18:28:44.914Z,140.55
2023-01-03T18:31:20.769Z,147.55
2023-01-03T18:33:54.588Z,136.73
2023-01-03T18:36:28.541Z,146.80
2023-01-03T18:39:08.470Z,142.15
2023-01-03T18:41:38.718Z,168.17
2023-01-03T18:44:08.928Z,166.55
2023-01-03T18:46:39.158Z,201.45
2023-01-03T18:49:10.202Z,164.70
2023-01-03T18:51:40.930Z,169.00
2023-01-03T18:54:16.498Z,170.13
2023-01-03T18:56:47.239Z,157.05
2023-01-03T18:59:27.260Z,154.80
2023-01-03T19:01:58.189Z,169.73
2023-01-03T19:04:28.350Z,156.27
2023-01-03T19:06:58.415Z,157.35
2023-01-03T19:09:31.272Z,151.32
2023-01-03T19:12:02.088Z,164.18
2023-01-03T19:14:33.863Z,141.07
2023-01-03T19:17:06.073Z,153.93
2023-01-03T19:19:35.882Z,154.10
2023-01-03T19:22:19.145Z,135.07
2023-01-03T19:24:51.590Z,140.82
2023-01-03T19:27:25.618Z,119.45
2023-01-03T19:29:56.147Z,133.18
2023-01-03T19:32:30.342Z,138.40
2023-01-03T19:35:00.547Z,145.13
2023-01-03T19:37:30.422Z,138.77
2023-01-03T19:40:01.267Z,148.53
2023-01-03T19:45:22.599Z,141.82
2023-01-03T19:47:54.107Z,144.13
2023-01-03T19:50:27.848Z,162.00
2023-01-03T19:52:58.752Z,139.68
2023-01-03T19:55:32.250Z,131.38
2023-01-03T19:58:07.974Z,140.40
2023-01-03T20:00:38.860Z,140.02
2023-01-03T20:03:15.500Z,129.68
2023-01-03T20:05:45.511Z,139.20
2023-01-03T20:08:18.349Z,134.50
2023-01-03T20:10:48.695Z,126.20
2023-01-03T20:13:25.090Z,137.80
2023-01-03T20:15:58.939Z,135.88
2023-01-03T20:18:34.939Z,137.27
2023-01-03T20:21:25.205Z,139.75
2023-01-03T20:23:58.447Z,138.18
2023-01-03T20:26:32.490Z,135.57
2023-01-03T20:29:02.583Z,139.60
2023-01-03T20:31:32.453Z,137.88
2023-01-03T20:34:08.056Z,130.98
2023-01-03T20:36:51.315Z,132.13
2023-01-03T20:39:30.162Z,118.88
2023-01-03T20:42:03.694Z,141.13
2023-01-03T20:44:34.762Z,123.30
2023-01-03T20:47:06.088Z,130.55
2023-01-03T20:49:36.523Z,122.47
2023-01-03T20:52:06.430Z,119.45
2023-01-03T20:54:36.347Z,127.40
2023-01-03T20:57:17.215Z,112.75
2023-01-03T21:02:16.544Z,113.47
2023-01-03T21:04:46.659Z,116.10
2023-01-03T21:07:51.512Z,124.10
2023-01-03T21:10:26.915Z,118.47
2023-01-03T21:12:57.011Z,125.18
2023-01-03T21:15:26.952Z,125.03
2023-01-03T21:17:57.499Z,125.60
2023-01-03T21:20:29.737Z,131.48
2023-01-03T21:23:00.023Z,156.95
2023-01-03T21:25:34.450Z,141.60
2023-01-03T21:28:05.579Z,126.13
2023-01-03T21:30:35.796Z,136.93
2023-01-03T21:33:06.160Z,141.40
2023-01-03T21:35:36.053Z,129.18
2023-01-03T21:38:06.045Z,132.60
2023-01-03T21:40:36.289Z,127.60
2023-01-03T21:43:06.252Z,128.27
2023-01-03T21:45:48.871Z,146.65
2023-01-03T21:48:20.423Z,130.30
2023-01-03T21:50:51.671Z,132.45
2023-01-03T21:53:25.043Z,131.30
2023-01-03T21:55:55.048Z,127.80
2023-01-03T21:58:25.928Z,124.43
2023-01-03T22:00:55.958Z,122.18
2023-01-03T22:03:44.946Z,127.25
2023-01-03T22:06:16.295Z,134.68
2023-01-03T22:08:46.151Z,128.07
2023-01-03T22:11:16.251Z,124.43
2023-01-03T22:13:46.271Z,95.72
2023-01-03T22:16:16.276Z,131.82
2023-01-03T22:18:46.321Z,123.95
2023-01-03T22:21:16.741Z,127.47
2023-01-03T22:23:46.676Z,126.03
2023-01-03T22:26:18.321Z,134.77
2023-01-03T22:28:49.469Z,127.57
2023-01-03T22:31:26.140Z,125.72
2023-01-03T22:33:56.240Z,134.40
2023-01-03T22:36:26.203Z,137.73
2023-01-03T22:38:56.191Z,133.05
2023-01-03T22:41:26.081Z,139.75
2023-01-03T22:43:56.048Z,131.43
2023-01-03T22:46:26.652Z,134.65
2023-01-03T22:48:58.097Z,133.80
2023-01-03T22:51:28.134Z,142.27
2023-01-03T22:53:58.678Z,105.30
2023-01-03T22:56:28.598Z,141.70
2023-01-03T22:58:58.515Z,135.02
2023-01-03T23:01:29.674Z,143.95
2023-01-03T23:04:02.284Z,133.63
2023-01-03T23:06:33.448Z,120.82
2023-01-03T23:09:03.718Z,135.60
2023-01-03T23:11:48.943Z,127.03
2023-01-03T23:14:21.288Z,134.35
2023-01-03T23:16:56.130Z,129.52
2023-01-03T23:19:29.215Z,133.57
2023-01-03T23:21:59.923Z,129.10
2023-01-03T23:24:29.957Z,132.02
2023-01-03T23:26:59.990Z,147.90
2023-01-03T23:29:32.962Z,145.35
2023-01-03T23:32:03.490Z,151.68
2023-01-03T23:34:33.660Z,151.40
2023-01-03T23:37:06.316Z,150.88
2023-01-03T23:39:36.934Z,146.07
2023-01-03T23:42:07.055Z,157.45
2023-01-03T23:44:36.969Z,166.75
2023-01-03T23:47:12.792Z,138.15
2023-01-03T23:49:43.576Z,143.80
2023-01-03T23:52:13.494Z,133.32
2023-01-03T23:54:43.489Z,152.65
2023-01-03T23:57:13.635Z,148.65
2023-01-03T23:59:44.300Z,152.57
